createdAt,value
2017-07-23T00:02:01.902Z,11.13
2017-07-23T00:04:29.048Z,9.87
2017-07-23T00:06:56.161Z,11.80
2017-07-23T00:09:22.587Z,13.40
2017-07-23T00:11:48.990Z,11.40
2017-07-23T00:14:15.401Z,10.43
2017-07-23T00:16:42.537Z,10.93
2017-07-23T00:19:09.686Z,10.73
2017-07-23T00:21:36.076Z,11.23
2017-07-23T00:24:02.489Z,10.10
2017-07-23T00:26:28.925Z,10.27
2017-07-23T00:28:55.354Z,11.13
2017-07-23T00:31:21.737Z,11.00
2017-07-23T00:33:48.143Z,10.50
2017-07-23T00:36:14.547Z,10.93
2017-07-23T00:38:40.979Z,10.90
2017-07-23T00:41:07.390Z,12.73
2017-07-23T00:43:34.521Z,12.27
2017-07-23T00:46:00.940Z,12.03
2017-07-23T00:48:27.342Z,11.83
2017-07-23T00:50:53.744Z,10.10
2017-07-23T00:53:20.892Z,10.53
2017-07-23T00:55:47.323Z,10.70
2017-07-23T00:58:14.486Z,12.03
2017-07-23T01:00:40.904Z,11.53
2017-07-23T01:03:08.053Z,10.50
2017-07-23T01:05:35.177Z,10.50
2017-07-23T01:08:01.584Z,11.00
2017-07-23T01:10:28.021Z,9.60
2017-07-23T01:12:54.438Z,10.30
2017-07-23T01:15:20.861Z,11.20
2017-07-23T01:17:47.279Z,10.00
2017-07-23T01:20:14.427Z,10.70
2017-07-23T01:22:40.832Z,10.30
2017-07-23T01:25:07.678Z,11.80
2017-07-23T01:27:34.088Z,9.90
2017-07-23T01:30:00.524Z,10.53
2017-07-23T01:32:26.936Z,9.13
2017-07-23T01:34:53.360Z,9.50
2017-07-23T01:37:19.778Z,9.20
2017-07-23T01:39:46.205Z,9.97
2017-07-23T01:42:12.646Z,9.50
2017-07-23T01:44:39.105Z,9.23
2017-07-23T01:47:05.539Z,11.10
2017-07-23T01:49:31.980Z,10.87
2017-07-23T01:51:58.443Z,10.00
2017-07-23T01:54:24.848Z,11.33
2017-07-23T01:56:51.370Z,10.47
2017-07-23T01:59:17.810Z,10.60
2017-07-23T02:01:44.216Z,9.70
2017-07-23T02:04:10.617Z,9.40
2017-07-23T02:06:37.777Z,9.10
2017-07-23T02:09:04.938Z,10.23
2017-07-23T02:11:31.364Z,10.37
2017-07-23T02:13:57.777Z,9.93
2017-07-23T02:16:24.206Z,8.40
2017-07-23T02:18:50.590Z,10.93
2017-07-23T02:21:16.988Z,10.93
2017-07-23T02:23:44.136Z,11.00
2017-07-23T02:26:11.292Z,11.10
2017-07-23T02:28:38.425Z,10.90
2017-07-23T02:31:05.585Z,10.13
2017-07-23T02:33:32.726Z,11.13
2017-07-23T02:35:59.125Z,11.30
2017-07-23T02:38:25.588Z,10.90
2017-07-23T02:40:52.026Z,10.93
2017-07-23T02:43:18.407Z,11.63
2017-07-23T02:45:44.809Z,11.50
2017-07-23T02:48:12.008Z,10.23
2017-07-23T02:50:38.440Z,9.73
2017-07-23T02:53:04.844Z,10.40
2017-07-23T02:55:31.231Z,11.40
2017-07-23T02:57:57.647Z,11.53
2017-07-23T03:00:24.044Z,11.50
2017-07-23T03:02:50.408Z,10.93
2017-07-23T03:05:16.813Z,11.60
2017-07-23T03:07:43.173Z,9.80
2017-07-23T03:10:09.574Z,10.70
2017-07-23T03:12:36.026Z,10.27
2017-07-23T03:15:02.474Z,9.80
2017-07-23T03:17:28.939Z,11.37
2017-07-23T03:19:56.085Z,10.30
2017-07-23T03:22:23.201Z,11.00
2017-07-23T03:24:49.605Z,11.10
2017-07-23T03:27:16.046Z,11.70
2017-07-23T03:29:42.441Z,10.63
2017-07-23T03:32:08.837Z,9.60
2017-07-23T03:34:35.236Z,10.60
2017-07-23T03:37:01.626Z,10.90
2017-07-23T03:39:28.004Z,10.60
2017-07-23T03:41:54.441Z,8.37
2017-07-23T03:44:20.896Z,10.67
2017-07-23T03:46:47.297Z,9.53
2017-07-23T03:49:13.719Z,9.70
2017-07-23T03:51:40.128Z,9.43
2017-07-23T03:54:07.297Z,10.20
2017-07-23T03:56:34.469Z,9.90
2017-07-23T03:59:00.868Z,11.50
2017-07-23T04:01:27.261Z,11.50
2017-07-23T04:03:53.661Z,12.33
2017-07-23T04:06:20.083Z,12.63
2017-07-23T04:08:46.498Z,12.63
2017-07-23T04:11:12.925Z,11.43
2017-07-23T04:13:40.073Z,11.70
2017-07-23T04:16:07.202Z,12.70
2017-07-23T04:18:33.612Z,11.87
2017-07-23T04:21:00.067Z,12.10
2017-07-23T04:23:26.464Z,12.60
2017-07-23T04:25:52.860Z,12.00
2017-07-23T04:28:20.007Z,12.03
2017-07-23T04:30:47.152Z,10.97
2017-07-23T04:33:13.567Z,11.10
2017-07-23T04:35:39.937Z,10.80
2017-07-23T04:38:06.344Z,13.03
2017-07-23T04:40:33.075Z,12.10
2017-07-23T04:42:59.502Z,14.07
2017-07-23T04:45:25.898Z,11.43
2017-07-23T04:47:52.342Z,12.43
2017-07-23T04:50:18.748Z,12.87
2017-07-23T04:52:45.152Z,12.20
2017-07-23T04:55:12.283Z,12.77
2017-07-23T04:57:38.666Z,12.83
2017-07-23T05:00:05.092Z,12.77
2017-07-23T05:02:31.486Z,13.07
2017-07-23T05:04:57.902Z,13.00
2017-07-23T05:07:24.319Z,11.97
2017-07-23T05:09:50.687Z,11.60
2017-07-23T05:12:17.088Z,11.13
2017-07-23T05:14:43.500Z,10.50
2017-07-23T05:17:09.921Z,12.47
2017-07-23T05:19:36.336Z,10.57
2017-07-23T05:22:03.507Z,11.83
2017-07-23T05:24:29.884Z,10.20
2017-07-23T05:26:56.337Z,10.77
2017-07-23T05:29:22.742Z,10.20
2017-07-23T05:31:49.175Z,11.40
2017-07-23T05:34:15.558Z,9.40
2017-07-23T05:36:41.974Z,8.63
2017-07-23T05:39:09.156Z,10.10
2017-07-23T05:41:35.552Z,9.60
2017-07-23T05:44:01.952Z,9.40
2017-07-23T05:46:28.347Z,9.27
2017-07-23T05:48:54.808Z,8.97
2017-07-23T05:51:21.580Z,9.17
2017-07-23T05:53:48.005Z,9.00
2017-07-23T05:56:14.617Z,8.70
2017-07-23T05:58:41.009Z,9.23
2017-07-23T06:01:08.159Z,8.03
2017-07-23T06:03:35.296Z,7.10
2017-07-23T06:06:02.472Z,7.47
2017-07-23T06:08:28.907Z,6.90
2017-07-23T06:10:55.316Z,6.50
2017-07-23T06:13:22.494Z,6.20
2017-07-23T06:15:48.913Z,7.50
2017-07-23T06:18:16.072Z,7.40
2017-07-23T06:20:42.439Z,6.80
2017-07-23T06:23:08.857Z,6.60
2017-07-23T06:25:35.269Z,7.13
2017-07-23T06:28:01.689Z,7.97
2017-07-23T06:30:28.833Z,6.33
2017-07-23T06:32:56.008Z,6.57
2017-07-23T06:35:22.432Z,6.30
2017-07-23T06:37:48.877Z,6.60
2017-07-23T06:40:15.310Z,5.90
2017-07-23T06:42:41.745Z,5.90
2017-07-23T06:45:08.217Z,5.30
2017-07-23T06:47:34.652Z,5.33
2017-07-23T06:50:01.104Z,5.50
2017-07-23T06:52:27.503Z,6.00
2017-07-23T06:54:53.923Z,6.70
2017-07-23T06:57:20.334Z,6.57
2017-07-23T06:59:46.759Z,5.10
2017-07-23T07:02:13.901Z,5.70
2017-07-23T07:04:40.270Z,5.07
2017-07-23T07:07:06.650Z,6.80
2017-07-23T07:09:33.082Z,5.53
2017-07-23T07:11:59.496Z,4.63
2017-07-23T07:14:25.886Z,4.90
2017-07-23T07:16:52.296Z,5.20
2017-07-23T07:19:19.521Z,3.97
2017-07-23T07:21:45.982Z,4.00
2017-07-23T07:24:12.418Z,5.10
2017-07-23T07:26:38.828Z,4.73
2017-07-23T07:29:05.222Z,5.17
2017-07-23T07:31:31.628Z,4.70
2017-07-23T07:33:58.017Z,4.50
2017-07-23T07:36:24.427Z,4.80
2017-07-23T07:38:50.913Z,4.97
2017-07-23T07:41:18.061Z,3.60
2017-07-23T07:43:45.229Z,4.17
2017-07-23T07:46:11.628Z,3.13
2017-07-23T07:48:38.035Z,3.40
2017-07-23T07:51:04.433Z,3.77
2017-07-23T07:53:30.843Z,3.90
2017-07-23T07:55:58.004Z,3.90
2017-07-23T07:58:24.529Z,3.77
2017-07-23T08:00:51.715Z,3.57
2017-07-23T08:03:18.166Z,3.17
2017-07-23T08:05:44.600Z,2.97
2017-07-23T08:08:11.037Z,2.70
2017-07-23T08:10:37.491Z,3.20
2017-07-23T08:13:03.904Z,3.33
2017-07-23T08:15:30.297Z,3.00
2017-07-23T08:17:56.672Z,2.87
2017-07-23T08:20:23.160Z,2.90
2017-07-23T08:22:49.601Z,2.90
2017-07-23T08:25:16.012Z,3.00
2017-07-23T08:27:43.177Z,3.17
2017-07-23T08:30:09.560Z,2.90
2017-07-23T08:32:35.979Z,3.23
2017-07-23T08:35:02.374Z,3.13
2017-07-23T08:37:28.778Z,3.30
2017-07-23T08:39:55.922Z,2.80
2017-07-23T08:42:22.337Z,2.90
2017-07-23T08:44:48.756Z,3.43
2017-07-23T08:47:15.158Z,3.00
2017-07-23T08:49:41.558Z,3.23
2017-07-23T08:52:08.736Z,4.00
2017-07-23T08:54:35.185Z,2.90
2017-07-23T08:57:01.619Z,3.40
2017-07-23T08:59:34.647Z,3.57
2017-07-23T09:02:01.042Z,3.83
2017-07-23T09:04:27.421Z,3.57
2017-07-23T09:06:54.610Z,3.57
2017-07-23T09:09:21.033Z,3.77
2017-07-23T09:11:47.452Z,3.90
2017-07-23T09:14:14.610Z,3.53
2017-07-23T09:16:41.768Z,3.73
2017-07-23T09:19:08.168Z,4.03
2017-07-23T09:21:34.579Z,3.93
2017-07-23T09:24:00.981Z,3.73
2017-07-23T09:26:27.416Z,3.70
2017-07-23T09:28:53.808Z,3.60
2017-07-23T09:31:20.925Z,3.73
2017-07-23T09:33:47.332Z,3.40
2017-07-23T09:36:13.757Z,3.10
2017-07-23T09:38:40.164Z,4.23
2017-07-23T09:41:07.339Z,3.33
2017-07-23T09:43:33.736Z,3.50
2017-07-23T09:46:00.112Z,3.87
2017-07-23T09:48:26.511Z,3.80
2017-07-23T09:50:53.650Z,3.70
2017-07-23T09:53:20.043Z,3.60
2017-07-23T09:55:46.450Z,3.53
2017-07-23T09:58:12.854Z,3.50
2017-07-23T10:00:44.382Z,3.67
2017-07-23T10:06:13.556Z,3.47
2017-07-23T10:08:56.551Z,3.70
2017-07-23T10:11:27.308Z,3.60
2017-07-23T10:13:54.937Z,3.40
2017-07-23T10:16:33.796Z,3.70
2017-07-23T10:19:11.960Z,4.30
2017-07-23T10:21:40.054Z,3.93
2017-07-23T10:24:16.950Z,3.10
2017-07-23T10:29:25.797Z,3.70
2017-07-23T10:31:55.813Z,2.93
2017-07-23T10:34:22.221Z,2.83
2017-07-23T10:36:49.372Z,3.33
2017-07-23T10:39:16.510Z,3.90
2017-07-23T10:41:42.876Z,3.17
2017-07-23T10:44:09.275Z,3.40
2017-07-23T10:46:36.423Z,3.33
2017-07-23T10:49:03.556Z,3.67
2017-07-23T10:51:29.974Z,3.87
2017-07-23T10:53:56.371Z,3.80
2017-07-23T10:56:22.756Z,3.40
2017-07-23T10:58:49.170Z,3.10
2017-07-23T11:01:15.582Z,3.37
2017-07-23T11:03:41.981Z,3.50
2017-07-23T11:06:09.112Z,3.30
2017-07-23T11:08:35.534Z,3.30
2017-07-23T11:11:01.956Z,3.30
2017-07-23T11:13:28.359Z,3.40
2017-07-23T11:15:54.736Z,3.60
2017-07-23T11:18:21.137Z,3.47
2017-07-23T11:20:47.528Z,3.63
2017-07-23T11:23:14.624Z,3.70
2017-07-23T11:25:41.061Z,3.10
2017-07-23T11:28:22.384Z,3.57
2017-07-23T11:30:49.563Z,3.57
2017-07-23T11:33:15.946Z,3.13
2017-07-23T11:35:42.324Z,3.37
2017-07-23T11:38:08.729Z,2.77
2017-07-23T11:40:35.125Z,2.87
2017-07-23T11:43:01.540Z,3.70
2017-07-23T11:45:27.959Z,3.27
2017-07-23T11:47:54.352Z,3.30
2017-07-23T11:50:21.484Z,3.20
2017-07-23T11:52:47.871Z,3.20
2017-07-23T11:55:14.305Z,3.10
2017-07-23T11:57:40.709Z,3.30
2017-07-23T12:00:07.896Z,3.23
2017-07-23T12:02:34.631Z,2.80
2017-07-23T12:05:01.038Z,3.23
2017-07-23T12:07:28.191Z,3.13
2017-07-23T12:09:55.346Z,3.77
2017-07-23T12:12:21.759Z,3.50
2017-07-23T12:14:48.914Z,3.40
2017-07-23T12:17:15.322Z,3.20
2017-07-23T12:19:41.716Z,2.80
2017-07-23T12:22:08.139Z,2.60
2017-07-23T12:24:34.508Z,3.43
2017-07-23T12:27:00.893Z,3.13
2017-07-23T12:29:28.082Z,2.97
2017-07-23T12:31:54.488Z,3.07
2017-07-23T12:34:20.892Z,3.33
2017-07-23T12:36:47.618Z,3.20
2017-07-23T12:39:14.015Z,3.73
2017-07-23T12:41:40.393Z,3.03
2017-07-23T12:44:06.804Z,3.13
2017-07-23T12:46:33.222Z,2.80
2017-07-23T12:48:59.629Z,3.47
2017-07-23T12:51:26.000Z,3.60
2017-07-23T12:53:52.398Z,3.57
2017-07-23T12:56:18.827Z,3.67
2017-07-23T12:58:45.225Z,3.30
2017-07-23T13:01:12.419Z,3.63
2017-07-23T13:03:40.458Z,3.93
2017-07-23T13:06:07.594Z,3.20
2017-07-23T13:08:33.995Z,4.33
2017-07-23T13:11:00.400Z,4.00
2017-07-23T13:13:26.864Z,4.20
2017-07-23T13:15:53.262Z,4.83
2017-07-23T13:18:19.722Z,4.50
2017-07-23T13:20:46.131Z,3.90
2017-07-23T13:23:12.518Z,3.77
2017-07-23T13:25:38.936Z,4.20
2017-07-23T13:28:05.357Z,4.13
2017-07-23T13:30:31.785Z,4.20
2017-07-23T13:32:58.258Z,3.83
2017-07-23T13:35:24.688Z,3.90
2017-07-23T13:37:51.162Z,3.73
2017-07-23T13:40:17.546Z,3.57
2017-07-23T13:42:43.956Z,3.67
2017-07-23T13:45:10.403Z,3.20
2017-07-23T13:47:36.894Z,3.83
2017-07-23T13:50:03.364Z,3.60
2017-07-23T13:52:29.760Z,3.70
2017-07-23T13:54:56.223Z,4.03
2017-07-23T13:57:22.644Z,4.20
2017-07-23T13:59:49.076Z,46.97
2017-07-23T14:02:15.464Z,3.33
2017-07-23T14:04:42.591Z,12.30
2017-07-23T14:07:09.002Z,3.60
2017-07-23T14:09:35.420Z,3.33
2017-07-23T14:12:01.793Z,3.70
2017-07-23T14:14:28.172Z,4.63
2017-07-23T14:16:54.563Z,3.17
2017-07-23T14:19:20.938Z,3.60
2017-07-23T14:21:47.342Z,3.60
2017-07-23T14:24:14.472Z,3.73
2017-07-23T14:26:40.885Z,3.77
2017-07-23T14:29:07.296Z,3.10
2017-07-23T14:31:33.705Z,3.70
2017-07-23T14:34:00.084Z,3.27
2017-07-23T14:36:26.499Z,3.70
2017-07-23T14:38:52.913Z,3.27
2017-07-23T14:41:19.328Z,3.50
2017-07-23T14:43:45.733Z,4.20
2017-07-23T14:46:12.140Z,3.40
2017-07-23T14:48:38.545Z,4.50
2017-07-23T14:51:04.963Z,3.90
2017-07-23T14:53:31.376Z,4.43
2017-07-23T14:55:57.775Z,3.37
2017-07-23T14:58:24.168Z,3.67
2017-07-23T15:00:50.613Z,3.00
2017-07-23T15:03:17.066Z,3.10
2017-07-23T15:05:43.478Z,3.70
2017-07-23T15:08:09.898Z,3.30
2017-07-23T15:10:36.341Z,3.57
2017-07-23T15:13:02.730Z,3.53
2017-07-23T15:15:29.152Z,3.60
2017-07-23T15:17:55.532Z,3.70
2017-07-23T15:20:21.929Z,3.53
2017-07-23T15:22:48.355Z,3.77
2017-07-23T15:25:14.730Z,3.80
2017-07-23T15:27:41.093Z,4.47
2017-07-23T15:30:07.508Z,4.80
2017-07-23T15:32:33.944Z,4.00
2017-07-23T15:35:00.386Z,4.30
2017-07-23T15:37:26.843Z,3.90
2017-07-23T15:39:53.206Z,3.93
2017-07-23T15:42:20.377Z,3.60
2017-07-23T15:44:46.793Z,3.57
2017-07-23T15:47:14.101Z,4.53
2017-07-23T15:49:40.534Z,3.23
2017-07-23T15:52:06.935Z,3.33
2017-07-23T15:54:33.313Z,3.80
2017-07-23T15:56:59.708Z,3.20
2017-07-23T15:59:26.108Z,3.50
2017-07-23T16:01:53.238Z,3.30
2017-07-23T16:04:19.644Z,3.60
2017-07-23T16:06:46.071Z,3.00
2017-07-23T16:09:12.492Z,3.50
2017-07-23T16:11:38.887Z,2.97
2017-07-23T16:14:06.038Z,3.30
2017-07-23T16:16:33.202Z,3.20
2017-07-23T16:19:00.359Z,3.77
2017-07-23T16:21:26.826Z,3.43
2017-07-23T16:23:53.234Z,3.20
2017-07-23T16:26:19.613Z,3.37
2017-07-23T16:28:46.018Z,3.57
2017-07-23T16:31:12.404Z,3.53
2017-07-23T16:33:39.573Z,3.20
2017-07-23T16:36:06.711Z,3.47
2017-07-23T16:38:33.911Z,3.43
2017-07-23T16:41:00.318Z,3.03
2017-07-23T16:43:26.735Z,3.03
2017-07-23T16:45:53.130Z,3.80
2017-07-23T16:48:19.548Z,3.80
2017-07-23T16:50:45.948Z,2.80
2017-07-23T16:53:12.354Z,3.60
2017-07-23T16:55:44.559Z,2.77
2017-07-23T16:58:10.955Z,4.10
2017-07-23T17:00:38.097Z,3.00
2017-07-23T17:03:04.484Z,3.63
2017-07-23T17:05:30.862Z,2.77
2017-07-23T17:07:57.980Z,3.37
2017-07-23T17:10:24.382Z,3.43
2017-07-23T17:12:50.895Z,3.50
2017-07-23T17:15:17.372Z,3.20
2017-07-23T17:17:43.783Z,3.03
2017-07-23T17:20:10.209Z,3.10
2017-07-23T17:22:36.599Z,3.40
2017-07-23T17:25:03.004Z,2.67
2017-07-23T17:27:29.400Z,3.40
2017-07-23T17:29:55.808Z,3.40
2017-07-23T17:32:22.199Z,3.40
2017-07-23T17:34:48.647Z,3.40
2017-07-23T17:37:15.065Z,3.50
2017-07-23T17:39:41.440Z,3.80
2017-07-23T17:42:07.830Z,2.80
2017-07-23T17:44:34.243Z,4.00
2017-07-23T17:47:00.650Z,3.50
2017-07-23T17:49:27.788Z,3.93
2017-07-23T17:51:55.998Z,3.50
2017-07-23T17:54:22.425Z,3.60
2017-07-23T17:56:48.838Z,3.53
2017-07-23T17:59:15.957Z,3.53
2017-07-23T18:01:42.389Z,4.07
2017-07-23T18:04:08.780Z,4.17
2017-07-23T18:06:35.166Z,3.73
2017-07-23T18:09:01.576Z,3.27
2017-07-23T18:11:27.991Z,3.77
2017-07-23T18:13:54.406Z,3.40
2017-07-23T18:16:20.889Z,4.13
2017-07-23T18:18:47.368Z,4.10
2017-07-23T18:21:13.752Z,4.27
2017-07-23T18:23:40.196Z,4.43
2017-07-23T18:26:06.608Z,3.90
2017-07-23T18:28:33.013Z,4.17
2017-07-23T18:30:59.457Z,4.60
2017-07-23T18:33:26.008Z,4.20
2017-07-23T18:35:52.427Z,5.10
2017-07-23T18:38:18.805Z,4.50
2017-07-23T18:40:45.969Z,4.40
2017-07-23T18:43:13.116Z,4.70
2017-07-23T18:45:40.255Z,4.80
2017-07-23T18:48:06.636Z,5.00
2017-07-23T18:50:33.027Z,4.20
2017-07-23T18:53:00.232Z,4.20
2017-07-23T18:55:26.635Z,4.43
2017-07-23T18:57:53.073Z,5.20
2017-07-23T19:00:19.481Z,5.30
2017-07-23T19:02:46.590Z,5.80
2017-07-23T19:05:13.007Z,5.50
2017-07-23T19:07:39.424Z,5.77
2017-07-23T19:10:05.912Z,4.50
2017-07-23T19:12:32.396Z,4.13
2017-07-23T19:14:58.800Z,3.83
2017-07-23T19:17:25.949Z,4.17
2017-07-23T19:19:53.103Z,4.10
2017-07-23T19:22:20.242Z,4.57
2017-07-23T19:24:47.379Z,4.00
2017-07-23T19:27:13.782Z,4.40
2017-07-23T19:29:40.205Z,4.47
2017-07-23T19:32:06.604Z,5.23
2017-07-23T19:34:33.797Z,4.80
2017-07-23T19:37:00.238Z,4.90
2017-07-23T19:39:26.641Z,5.93
2017-07-23T19:41:53.078Z,6.50
2017-07-23T19:44:19.517Z,9.30
2017-07-23T19:46:45.947Z,7.07
2017-07-23T19:49:12.365Z,6.90
2017-07-23T19:51:38.783Z,7.20
2017-07-23T19:54:05.924Z,6.43
2017-07-23T19:56:33.068Z,5.03
2017-07-23T19:58:59.465Z,6.63
2017-07-23T20:01:25.880Z,5.00
2017-07-23T20:03:52.359Z,5.70
2017-07-23T20:06:18.764Z,5.40
2017-07-23T20:08:45.346Z,4.50
2017-07-23T20:11:12.505Z,5.60
2017-07-23T20:13:39.696Z,5.57
2017-07-23T20:16:06.084Z,4.90
2017-07-23T20:18:33.238Z,5.50
2017-07-23T20:21:00.403Z,5.50
2017-07-23T20:23:26.832Z,5.40
2017-07-23T20:25:53.236Z,5.13
2017-07-23T20:28:19.671Z,5.63
2017-07-23T20:30:46.812Z,5.60
2017-07-23T20:33:13.238Z,5.00
2017-07-23T20:35:39.643Z,5.10
2017-07-23T20:38:06.112Z,5.13
2017-07-23T20:40:32.543Z,5.30
2017-07-23T20:42:58.925Z,5.10
2017-07-23T20:45:25.368Z,5.40
2017-07-23T20:47:51.764Z,7.20
2017-07-23T20:50:18.904Z,7.90
2017-07-23T20:52:46.092Z,6.47
2017-07-23T20:55:12.502Z,6.23
2017-07-23T20:57:39.669Z,6.30
2017-07-23T21:00:06.121Z,6.73
2017-07-23T21:02:32.547Z,5.87
2017-07-23T21:04:58.956Z,6.57
2017-07-23T21:07:26.089Z,5.90
2017-07-23T21:09:53.272Z,6.47
2017-07-23T21:12:19.671Z,6.27
2017-07-23T21:14:46.844Z,6.20
2017-07-23T21:17:13.250Z,6.27
2017-07-23T21:19:40.468Z,6.00
2017-07-23T21:22:06.881Z,6.30
2017-07-23T21:24:33.300Z,5.37
2017-07-23T21:26:59.688Z,7.07
2017-07-23T21:29:26.165Z,7.70
2017-07-23T21:31:52.562Z,7.50
2017-07-23T21:34:18.961Z,8.47
2017-07-23T21:36:46.089Z,8.47
2017-07-23T21:39:12.519Z,7.03
2017-07-23T21:41:38.931Z,9.03
2017-07-23T21:44:06.086Z,9.37
2017-07-23T21:46:33.247Z,9.03
2017-07-23T21:48:59.656Z,9.50
2017-07-23T21:51:26.802Z,8.50
2017-07-23T21:53:53.947Z,9.00
2017-07-23T21:56:20.339Z,9.07
2017-07-23T21:58:46.769Z,8.60
2017-07-23T22:01:13.180Z,9.13
2017-07-23T22:03:39.582Z,9.67
2017-07-23T22:06:06.717Z,9.80
2017-07-23T22:08:33.125Z,8.73
2017-07-23T22:10:59.552Z,8.60
2017-07-23T22:13:25.926Z,8.40
2017-07-23T22:15:53.085Z,8.73
2017-07-23T22:18:20.239Z,10.13
2017-07-23T22:20:47.377Z,7.47
2017-07-23T22:23:13.744Z,8.23
2017-07-23T22:25:40.480Z,9.10
2017-07-23T22:28:06.980Z,9.73
2017-07-23T22:30:34.114Z,8.67
2017-07-23T22:33:00.497Z,9.00
2017-07-23T22:35:26.909Z,8.97
2017-07-23T22:37:54.047Z,8.40
2017-07-23T22:40:21.192Z,8.00
2017-07-23T22:42:48.377Z,8.97
2017-07-23T22:45:14.804Z,9.40
2017-07-23T22:47:41.242Z,9.77
2017-07-23T22:50:07.646Z,8.70
2017-07-23T22:52:34.797Z,9.80
2017-07-23T22:55:01.969Z,7.70
2017-07-23T22:57:28.416Z,8.70
2017-07-23T22:59:54.813Z,8.03
2017-07-23T23:02:21.957Z,8.17
2017-07-23T23:04:48.393Z,7.73
2017-07-23T23:07:15.548Z,7.93
2017-07-23T23:09:41.914Z,7.60
2017-07-23T23:12:08.513Z,7.63
2017-07-23T23:14:35.686Z,8.60
2017-07-23T23:17:02.080Z,7.67
2017-07-23T23:19:28.502Z,7.30
2017-07-23T23:21:54.890Z,8.40
2017-07-23T23:24:21.306Z,9.20
2017-07-23T23:26:48.458Z,10.10
2017-07-23T23:29:14.890Z,8.70
2017-07-23T23:31:41.276Z,9.30
2017-07-23T23:34:07.696Z,10.20
2017-07-23T23:36:34.099Z,11.10
2017-07-23T23:39:00.486Z,9.87
2017-07-23T23:41:26.924Z,9.53
2017-07-23T23:43:53.339Z,11.10
2017-07-23T23:46:19.734Z,9.57
2017-07-23T23:48:46.167Z,9.70
2017-07-23T23:51:12.568Z,9.50
2017-07-23T23:53:38.938Z,9.70
2017-07-23T23:56:05.355Z,9.00
2017-07-23T23:58:31.780Z,8.90
